Time;durP1;ratioP1;P1;durP2;ratioP2;P2;SDS_P1;SDS_P2;PMS_P1;PMS_P2;Temp;Humidity;BMP_temperature;BMP_pressure;BME280_temperature;BME280_humidity;BME280_pressure;Samples;Min_cycle;Max_cycle;Signal;HPM_P1;HPM_P2
2021/05/02 00:00:45;;;;;;;8.80;7.72;;;;;;;11.03;45.52;99976.84;5038291;28;20128;-80
2021/05/02 00:03:11;;;;;;;11.60;8.63;;;;;;;11.02;45.12;99968.06;5057511;28;20668;-80
2021/05/02 00:05:38;;;;;;;11.63;8.10;;;;;;;10.92;44.92;99961.56;5053547;28;20049;-80
2021/05/02 00:08:06;;;;;;;10.52;8.50;;;;;;;10.97;45.17;99979.88;5035498;28;20075;-80
2021/05/02 00:10:34;;;;;;;11.65;8.35;;;;;;;10.94;44.56;99975.59;5054499;28;20041;-80
2021/05/02 00:13:02;;;;;;;9.10;8.05;;;;;;;10.92;44.32;99972.16;5053463;28;20045;-81
2021/05/02 00:15:30;;;;;;;12.68;8.60;;;;;;;10.88;44.18;99968.81;5056428;28;20496;-79
2021/05/02 00:17:57;;;;;;;11.95;8.27;;;;;;;10.87;44.36;99971.53;5055030;28;20476;-79
2021/05/02 00:20:25;;;;;;;10.05;8.50;;;;;;;10.84;44.17;99975.25;5053065;28;20055;-79
2021/05/02 00:22:55;;;;;;;13.60;8.02;;;;;;;10.83;44.06;99973.53;5052117;28;20131;-80
2021/05/02 00:25:25;;;;;;;12.75;8.23;;;;;;;10.83;43.98;99976.19;5036583;28;20049;-79
2021/05/02 00:27:52;;;;;;;8.38;7.45;;;;;;;10.85;44.28;99981.41;5052902;28;20431;-80
2021/05/02 00:30:21;;;;;;;9.95;7.80;;;;;;;10.83;43.74;99973.53;5046077;28;20136;-80
2021/05/02 00:32:51;;;;;;;9.38;7.40;;;;;;;10.81;44.18;99983.34;5054585;28;20051;-79
2021/05/02 00:35:20;;;;;;;9.13;7.50;;;;;;;10.82;44.08;99984.22;5055003;28;20045;-79
2021/05/02 00:37:46;;;;;;;10.88;8.13;;;;;;;10.85;43.81;99984.03;5066675;28;20044;-78
2021/05/02 00:40:18;;;;;;;13.88;8.30;;;;;;;10.87;43.52;99993.59;5065274;28;20076;-80
2021/05/02 00:42:51;;;;;;;9.95;7.82;;;;;;;10.87;43.57;99987.44;5054247;28;20051;-79
2021/05/02 00:45:24;;;;;;;8.95;8.00;;;;;;;10.85;43.41;99984.03;5055333;28;20045;-80
2021/05/02 00:47:58;;;;;;;10.40;8.27;;;;;;;10.88;43.16;99990.00;5055121;28;20090;-80
2021/05/02 00:50:28;;;;;;;9.35;7.78;;;;;;;10.85;43.58;99990.19;5055538;28;20043;-79
2021/05/02 00:53:00;;;;;;;10.35;8.20;;;;;;;10.83;43.93;99997.38;5060194;28;20055;-79
2021/05/02 00:55:37;;;;;;;11.07;8.27;;;;;;;10.81;43.69;99988.66;5054803;28;20071;-80
2021/05/02 00:58:05;;;;;;;8.35;7.05;;;;;;;10.81;44.08;99998.38;5058341;28;20052;-80
2021/05/02 01:00:37;;;;;;;10.75;7.97;;;;;;;10.85;43.44;100000.78;5056790;28;20082;-79
2021/05/02 01:03:06;;;;;;;11.93;8.02;;;;;;;10.82;43.47;100000.94;5057111;28;20457;-79
2021/05/02 01:05:34;;;;;;;9.30;8.30;;;;;;;10.76;43.07;99989.81;5056908;28;20052;-79
2021/05/02 01:08:03;;;;;;;9.73;7.68;;;;;;;10.81;43.56;100001.88;5060985;28;20053;-80
2021/05/02 01:10:31;;;;;;;9.88;8.00;;;;;;;10.80;43.17;100002.81;5058839;28;20044;-79
2021/05/02 01:13:03;;;;;;;10.15;7.95;;;;;;;10.79;43.40;99998.47;5052875;28;20075;-80
2021/05/02 01:15:33;;;;;;;11.10;8.35;;;;;;;10.72;43.74;99998.88;5059887;28;20049;-79
2021/05/02 01:18:08;;;;;;;9.48;7.80;;;;;;;10.72;43.99;100018.25;5059120;28;20076;-79
2021/05/02 01:20:38;;;;;;;10.55;7.60;;;;;;;10.68;43.87;100013.22;5058943;28;20049;-81
2021/05/02 01:23:31;;;;;;;10.73;7.50;;;;;;;10.62;44.26;100010.91;5056390;28;20399;-81
2021/05/02 01:26:00;;;;;;;8.35;7.18;;;;;;;10.62;44.30;100013.53;5059929;28;20055;-81
2021/05/02 01:28:27;;;;;;;10.57;7.78;;;;;;;10.59;44.52;100017.22;5060254;28;20480;-80
2021/05/02 01:30:54;;;;;;;12.05;7.82;;;;;;;10.57;44.58;100018.22;5058516;28;20083;-81
2021/05/02 01:33:23;;;;;;;10.13;7.57;;;;;;;10.54;44.47;100027.19;5059237;28;20827;-81
2021/05/02 01:35:49;;;;;;;10.50;7.80;;;;;;;10.52;44.39;100027.28;5078012;28;20064;-80
2021/05/02 01:38:19;;;;;;;11.02;8.07;;;;;;;10.52;44.58;100018.47;5057721;28;20079;-81
2021/05/02 01:40:45;;;;;;;10.93;8.10;;;;;;;10.50;44.62;100020.34;5068354;28;20056;-81
2021/05/02 01:43:11;;;;;;;9.80;7.93;;;;;;;10.46;45.05;100024.94;5074422;28;20091;-80
2021/05/02 01:45:37;;;;;;;9.60;7.90;;;;;;;10.50;45.46;100028.28;5075970;28;20033;-81
2021/05/02 01:48:08;;;;;;;10.65;8.18;;;;;;;10.50;44.98;100026.50;5060301;28;20045;-82
2021/05/02 01:50:45;;;;;;;9.30;7.53;;;;;;;10.46;45.21;100022.28;5066276;28;20041;-79
2021/05/02 01:53:14;;;;;;;12.65;7.53;;;;;;;10.44;45.47;100026.81;5068037;28;20045;-79
2021/05/02 01:55:40;;;;;;;11.57;7.90;;;;;;;10.44;45.51;100029.47;5060555;28;20403;-80
2021/05/02 01:58:10;;;;;;;9.50;8.00;;;;;;;10.41;45.90;100032.25;5052569;28;20128;-79
2021/05/02 02:00:49;;;;;;;10.68;7.75;;;;;;;10.38;46.20;100032.44;5049416;28;20104;-81
2021/05/02 02:03:15;;;;;;;10.85;7.80;;;;;;;10.37;45.97;100028.09;5053790;28;20048;-80
2021/05/02 02:05:41;;;;;;;11.43;8.10;;;;;;;10.37;46.02;100028.09;5054366;28;20454;-80
2021/05/02 02:08:08;;;;;;;11.20;8.55;;;;;;;10.33;45.94;100034.47;5060572;28;20049;-79
2021/05/02 02:10:36;;;;;;;10.20;8.10;;;;;;;10.31;46.04;100041.63;5064847;28;20092;-79
2021/05/02 02:13:08;;;;;;;10.07;7.37;;;;;;;10.26;46.25;100046.28;5069837;28;20069;-79
2021/05/02 02:15:34;;;;;;;13.68;8.10;;;;;;;10.22;46.82;100051.84;5061438;28;20667;-80
2021/05/02 02:18:01;;;;;;;9.60;7.97;;;;;;;10.19;47.54;100053.69;5060689;28;20113;-80
2021/05/02 02:20:28;;;;;;;8.30;7.43;;;;;;;10.21;46.72;100050.97;5058765;28;20110;-79
2021/05/02 02:23:00;;;;;;;8.40;7.28;;;;;;;10.20;47.22;100051.91;5067701;28;20053;-79
2021/05/02 02:25:28;;;;;;;9.63;7.40;;;;;;;10.17;47.64;100054.66;5059218;28;20057;-80
2021/05/02 02:27:56;;;;;;;9.82;7.53;;;;;;;10.13;48.09;100056.59;5059117;28;20140;-80
2021/05/02 02:30:26;;;;;;;9.80;8.60;;;;;;;10.11;47.60;100058.47;5054754;28;20057;-79
2021/05/02 02:32:53;;;;;;;11.45;8.10;;;;;;;10.09;47.72;100052.41;5067909;28;20075;-79
2021/05/02 02:35:21;;;;;;;9.45;7.82;;;;;;;10.09;47.85;100057.69;5070340;28;20041;-79
2021/05/02 02:37:50;;;;;;;9.60;7.80;;;;;;;10.05;47.99;100056.16;5066495;28;20069;-80
2021/05/02 02:40:18;;;;;;;10.38;8.40;;;;;;;10.05;48.38;100058.81;5068647;28;20057;-79
2021/05/02 02:42:46;;;;;;;10.98;8.05;;;;;;;10.04;48.64;100059.72;5063155;28;21389;-79
2021/05/02 02:45:13;;;;;;;9.35;8.02;;;;;;;10.05;48.67;100065.88;5063813;28;20072;-79
2021/05/02 02:47:50;;;;;;;10.73;8.45;;;;;;;10.01;48.80;100061.66;5063901;28;20048;-80
2021/05/02 02:50:19;;;;;;;13.02;8.32;;;;;;;10.03;48.80;100067.75;5055749;28;20057;-79
2021/05/02 02:52:53;;;;;;;12.07;8.18;;;;;;;10.00;48.83;100068.75;5065234;28;20084;-78
2021/05/02 02:55:22;;;;;;;11.23;8.45;;;;;;;9.99;49.01;100074.09;5056971;28;20044;-80
2021/05/02 02:57:51;;;;;;;8.63;7.45;;;;;;;9.98;49.44;100073.25;5062618;28;20135;-80
2021/05/02 03:00:24;;;;;;;10.35;7.75;;;;;;;9.99;49.06;100074.97;5057642;28;20041;-80
2021/05/02 03:02:54;;;;;;;10.85;8.60;;;;;;;9.98;49.59;100080.31;5058610;28;20052;-80
2021/05/02 03:05:23;;;;;;;11.07;8.13;;;;;;;9.98;49.54;100077.69;5054795;28;20048;-79
2021/05/02 03:07:51;;;;;;;9.88;7.85;;;;;;;9.97;49.68;100079.47;5057167;28;20119;-80
2021/05/02 03:10:18;;;;;;;11.50;8.77;;;;;;;9.99;50.02;100082.91;5053586;28;20051;-80
2021/05/02 03:12:44;;;;;;;8.75;7.80;;;;;;;10.02;49.82;100076.59;5056649;28;20049;-79
2021/05/02 03:15:11;;;;;;;11.48;8.15;;;;;;;10.00;49.98;100083.75;5057883;28;20064;-80
2021/05/02 03:17:41;;;;;;;12.20;9.15;;;;;;;9.95;50.08;100081.31;5060541;28;20068;-80
2021/05/02 03:20:21;;;;;;;9.68;7.97;;;;;;;9.95;50.06;100083.97;5062292;28;20104;-81
2021/05/02 03:22:57;;;;;;;12.30;8.10;;;;;;;9.95;50.06;100091.06;5064772;28;20483;-80
2021/05/02 03:25:26;;;;;;;11.02;8.45;;;;;;;9.90;50.16;100093.09;5055997;28;20132;-79
2021/05/02 03:28:01;;;;;;;11.13;8.07;;;;;;;9.82;50.27;100093.44;5060754;28;20150;-79
2021/05/02 03:30:28;;;;;;;13.73;8.30;;;;;;;9.84;50.58;100102.16;5060733;28;20147;-79
2021/05/02 03:32:56;;;;;;;11.85;7.93;;;;;;;9.81;50.75;100099.66;5064066;28;20045;-80
2021/05/02 03:35:27;;;;;;;9.25;7.57;;;;;;;9.84;51.04;100104.81;5064344;28;20053;-79
2021/05/02 03:38:22;;;;;;;10.65;7.63;;;;;;;9.87;50.91;100112.59;5069501;28;20052;-80
2021/05/02 03:40:52;;;;;;;10.20;7.57;;;;;;;9.88;50.93;100114.31;5073761;28;20040;-79
2021/05/02 03:43:18;;;;;;;13.60;8.18;;;;;;;9.91;50.89;100116.81;5067595;28;20072;-79
2021/05/02 03:45:44;;;;;;;9.95;7.85;;;;;;;9.90;50.91;100114.25;5068232;28;20076;-79
2021/05/02 03:48:10;;;;;;;10.32;7.70;;;;;;;9.85;51.12;100117.09;5069994;28;20051;-78
2021/05/02 03:50:37;;;;;;;10.38;8.10;;;;;;;9.85;51.44;100119.75;5067587;28;20075;-79
2021/05/02 03:53:04;;;;;;;13.63;7.70;;;;;;;9.85;51.43;100125.91;5061348;28;20613;-81
2021/05/02 03:55:46;;;;;;;9.00;7.30;;;;;;;9.88;51.55;100129.31;5051621;28;20063;-80
2021/05/02 03:58:15;;;;;;;13.30;8.07;;;;;;;9.85;51.42;100131.19;5052845;28;20108;-80
2021/05/02 04:00:42;;;;;;;10.82;7.70;;;;;;;9.81;51.66;100126.09;5057599;28;20116;-80
2021/05/02 04:03:11;;;;;;;9.40;7.28;;;;;;;9.86;51.71;100139.97;5058201;28;20072;-81
2021/05/02 04:05:37;;;;;;;12.85;7.80;;;;;;;9.87;51.76;100138.19;5053727;28;20542;-81
2021/05/02 04:08:05;;;;;;;10.32;7.32;;;;;;;9.88;51.41;100140.75;5057173;28;20491;-81
2021/05/02 04:10:32;;;;;;;9.80;7.80;;;;;;;9.88;51.37;100142.56;5056150;28;20119;-80
2021/05/02 04:12:59;;;;;;;10.05;8.00;;;;;;;9.84;51.66;100147.97;5053977;28;20056;-79
2021/05/02 04:15:25;;;;;;;10.75;8.07;;;;;;;9.82;51.39;100152.47;5048318;28;20127;-79
2021/05/02 04:17:53;;;;;;;11.75;8.60;;;;;;;9.87;51.17;100157.56;5054110;28;20135;-80
2021/05/02 04:20:20;;;;;;;13.32;9.68;;;;;;;9.89;51.26;100153.06;5052644;28;20049;-82
2021/05/02 04:22:48;;;;;;;10.93;9.18;;;;;;;9.94;51.00;100171.34;5053646;28;20080;-78
2021/05/02 04:25:14;;;;;;;13.35;9.43;;;;;;;9.94;51.10;100161.59;5035346;28;20052;-81
2021/05/02 04:27:40;;;;;;;11.32;9.40;;;;;;;9.90;51.32;100164.50;5054576;28;20136;-79
2021/05/02 04:30:08;;;;;;;11.82;9.63;;;;;;;9.84;51.61;100163.84;5054493;28;20057;-79
2021/05/02 04:32:34;;;;;;;12.15;9.63;;;;;;;9.83;52.19;100169.22;5061921;28;20108;-78
2021/05/02 04:35:00;;;;;;;15.27;10.00;;;;;;;9.80;52.05;100169.34;5056129;28;20099;-79
2021/05/02 04:37:26;;;;;;;15.93;10.40;;;;;;;9.75;52.17;100168.72;5051908;28;20049;-79
2021/05/02 04:39:52;;;;;;;12.95;10.60;;;;;;;9.76;52.56;100175.69;5061753;28;20136;-79
2021/05/02 04:42:18;;;;;;;14.65;10.77;;;;;;;9.73;52.62;100183.81;5055669;28;20052;-80
2021/05/02 04:44:45;;;;;;;12.90;10.60;;;;;;;9.69;53.27;100198.94;5058023;28;20045;-80
2021/05/02 04:47:18;;;;;;;12.38;10.90;;;;;;;9.70;53.11;100198.03;5051738;28;20051;-80
2021/05/02 04:49:46;;;;;;;13.48;10.90;;;;;;;9.70;53.82;100202.44;5056105;28;20052;-79
2021/05/02 04:52:14;;;;;;;13.80;11.02;;;;;;;9.68;53.75;100205.16;5060498;28;20060;-81
2021/05/02 04:54:40;;;;;;;14.25;11.65;;;;;;;9.69;53.45;100212.16;5063296;28;20076;-79
2021/05/02 04:57:07;;;;;;;15.00;11.40;;;;;;;9.69;54.06;100217.47;5057480;28;20087;-79
2021/05/02 04:59:35;;;;;;;13.32;11.43;;;;;;;9.74;53.71;100218.09;5051177;28;20049;-78
2021/05/02 05:02:03;;;;;;;15.25;12.40;;;;;;;9.77;53.66;100220.59;5054342;28;20048;-80
2021/05/02 05:04:32;;;;;;;16.10;11.80;;;;;;;9.79;53.70;100220.53;5063481;28;20056;-80
2021/05/02 05:06:58;;;;;;;13.95;11.07;;;;;;;9.77;54.00;100230.31;5060907;28;20041;-80
2021/05/02 05:09:26;;;;;;;16.23;12.80;;;;;;;9.81;53.69;100232.75;5059188;28;20127;-81
2021/05/02 05:11:52;;;;;;;17.08;12.18;;;;;;;9.81;53.84;100234.53;5058841;28;20128;-80
2021/05/02 05:14:18;;;;;;;15.20;12.18;;;;;;;9.80;54.20;100232.81;5062610;28;20110;-80
2021/05/02 05:16:44;;;;;;;16.77;13.13;;;;;;;9.78;54.17;100234.66;5079923;28;20116;-80
2021/05/02 05:19:11;;;;;;;15.82;12.90;;;;;;;9.75;54.54;100232.19;5058471;28;20480;-80
2021/05/02 05:21:38;;;;;;;16.98;13.55;;;;;;;9.70;54.57;100231.53;5059766;28;20075;-79
2021/05/02 05:24:05;;;;;;;17.52;13.13;;;;;;;9.70;54.91;100239.47;5056292;28;20047;-80
2021/05/02 05:26:33;;;;;;;17.95;13.63;;;;;;;9.67;54.52;100243.09;5062874;28;20068;-79
2021/05/02 05:28:59;;;;;;;19.52;14.50;;;;;;;9.66;55.14;100248.47;5060027;28;20121;-79
2021/05/02 05:31:26;;;;;;;15.68;13.85;;;;;;;9.67;55.31;100250.19;5066549;28;20131;-80
2021/05/02 05:33:52;;;;;;;16.75;13.80;;;;;;;9.72;55.54;100256.13;5055027;28;20516;-80
2021/05/02 05:36:19;;;;;;;18.58;15.50;;;;;;;9.81;55.25;100267.13;5043421;28;20049;-80
2021/05/02 05:38:45;;;;;;;18.50;15.20;;;;;;;9.90;55.27;100263.22;5061680;28;20053;-79
2021/05/02 05:41:11;;;;;;;18.80;14.60;;;;;;;9.99;55.24;100262.78;5072792;28;20062;-80
2021/05/02 05:43:37;;;;;;;18.08;14.75;;;;;;;10.08;55.29;100261.47;5075429;28;20487;-79
2021/05/02 05:46:03;;;;;;;18.95;15.43;;;;;;;10.28;55.06;100269.38;5076119;28;20044;-79
2021/05/02 05:48:33;;;;;;;21.55;17.30;;;;;;;10.42;54.62;100266.06;5072059;28;20033;-79
2021/05/02 05:51:00;;;;;;;20.92;16.58;;;;;;;10.54;54.38;100265.50;5075881;28;20076;-80
2021/05/02 05:53:26;;;;;;;23.48;17.65;;;;;;;10.62;53.86;100273.03;5076186;28;20045;-79
2021/05/02 05:55:56;;;;;;;21.17;18.10;;;;;;;10.66;53.91;100275.47;5073458;28;20068;-80
2021/05/02 05:58:23;;;;;;;;;;;;;;;10.62;53.95;100276.53;5074304;28;20041;-80
2021/05/02 06:00:49;;;;;;;23.48;17.55;;;;;;;10.62;54.27;100280.97;5075321;28;19920;-79
2021/05/02 06:03:16;;;;;;;23.52;17.98;;;;;;;10.61;54.00;100282.78;5069628;28;20450;-79
2021/05/02 06:05:43;;;;;;;24.75;17.30;;;;;;;10.66;54.47;100290.50;5066612;28;20080;-79
2021/05/02 06:08:10;;;;;;;23.02;18.30;;;;;;;10.79;54.14;100302.19;5069297;28;20492;-80
2021/05/02 06:10:36;;;;;;;22.63;18.15;;;;;;;10.89;53.57;100304.31;5068207;28;20036;-80
2021/05/02 06:13:04;;;;;;;24.55;18.33;;;;;;;10.93;53.76;100301.50;5070663;28;20041;-80
2021/05/02 06:15:30;;;;;;;23.30;18.38;;;;;;;11.08;53.21;100300.75;5086269;28;20045;-81
2021/05/02 06:17:56;;;;;;;24.48;19.25;;;;;;;11.53;51.73;100300.16;5070852;28;20060;-81
2021/05/02 06:20:23;;;;;;;25.40;19.25;;;;;;;11.91;50.80;100303.50;5064088;28;20363;-81
2021/05/02 06:22:49;;;;;;;24.95;20.73;;;;;;;12.30;49.39;100303.94;5066996;28;20064;-80
2021/05/02 06:25:17;;;;;;;25.85;20.30;;;;;;;12.72;48.41;100309.59;5069114;28;20109;-79
2021/05/02 06:27:43;;;;;;;27.83;20.30;;;;;;;13.10;46.80;100310.88;5066195;28;20479;-80
2021/05/02 06:30:10;;;;;;;29.60;21.30;;;;;;;13.51;46.02;100318.25;5065611;28;20045;-79
2021/05/02 06:32:36;;;;;;;26.42;19.77;;;;;;;14.01;44.62;100307.16;5065398;28;20595;-80
2021/05/02 06:35:04;;;;;;;27.33;19.33;;;;;;;15.12;41.80;100307.06;5067603;28;20100;-80
2021/05/02 06:37:30;;;;;;;24.90;18.90;;;;;;;16.33;39.39;100317.28;5055210;28;20096;-81
2021/05/02 06:39:56;;;;;;;24.92;18.77;;;;;;;17.63;36.69;100316.44;5057368;28;20526;-81
2021/05/02 06:42:23;;;;;;;21.55;18.45;;;;;;;18.49;34.38;100311.38;5054476;28;20576;-81
2021/05/02 06:44:51;;;;;;;23.42;17.73;;;;;;;19.11;33.44;100317.94;5056328;28;20053;-81
2021/05/02 06:47:17;;;;;;;21.63;17.48;;;;;;;19.42;32.76;100318.91;5056354;28;20123;-81
2021/05/02 06:49:43;;;;;;;20.77;17.73;;;;;;;18.60;33.65;100323.09;5057452;28;20045;-81
2021/05/02 06:52:10;;;;;;;19.80;17.05;;;;;;;18.78;32.91;100322.44;5057845;28;20454;-81
2021/05/02 06:54:36;;;;;;;17.05;14.90;;;;;;;19.41;31.32;100333.31;5058283;28;20400;-81
2021/05/02 06:57:04;;;;;;;15.10;13.50;;;;;;;19.55;29.08;100323.13;5050820;28;20065;-82
2021/05/02 06:59:31;;;;;;;14.35;11.32;;;;;;;19.90;28.81;100327.31;5052971;28;20095;-81
2021/05/02 07:01:58;;;;;;;13.95;11.75;;;;;;;20.02;28.63;100326.22;5070850;28;20076;-81
2021/05/02 07:04:26;;;;;;;12.70;10.32;;;;;;;20.37;27.72;100325.00;5048815;28;20053;-81
2021/05/02 07:06:55;;;;;;;11.75;10.55;;;;;;;21.24;26.61;100332.28;5053199;28;20056;-81
2021/05/02 07:09:21;;;;;;;10.65;8.77;;;;;;;21.25;26.77;100336.66;5053009;28;20049;-81
2021/05/02 07:11:47;;;;;;;10.75;9.23;;;;;;;21.69;25.95;100348.69;5053004;28;20602;-80
2021/05/02 07:14:14;;;;;;;11.23;9.18;;;;;;;22.04;25.03;100341.81;5053748;28;20057;-80
2021/05/02 07:16:41;;;;;;;9.85;8.85;;;;;;;22.07;24.85;100335.28;5059412;28;20094;-81
2021/05/02 07:19:08;;;;;;;10.75;9.63;;;;;;;22.16;24.68;100347.91;5064405;28;22331;-81
2021/05/02 07:21:34;;;;;;;10.00;9.00;;;;;;;22.29;23.91;100345.72;5066641;28;20045;-81
2021/05/02 07:24:01;;;;;;;9.02;7.90;;;;;;;22.46;24.66;100346.78;5071208;28;20053;-80
2021/05/02 07:26:27;;;;;;;10.15;8.60;;;;;;;22.83;23.25;100355.69;5059984;28;20100;-79
2021/05/02 07:28:53;;;;;;;10.27;8.48;;;;;;;22.87;22.88;100367.88;5051128;28;20130;-81
2021/05/02 07:31:20;;;;;;;10.32;8.50;;;;;;;22.77;22.54;100360.84;5060846;28;20076;-79
2021/05/02 07:33:47;;;;;;;9.15;8.05;;;;;;;22.74;22.88;100361.97;5057565;28;20049;-82
2021/05/02 07:36:14;;;;;;;7.15;6.07;;;;;;;23.10;22.11;100360.22;5061040;28;20045;-80
2021/05/02 07:38:42;;;;;;;6.53;5.63;;;;;;;23.32;21.47;100361.59;5054464;28;20393;-80
2021/05/02 07:41:09;;;;;;;7.00;5.65;;;;;;;23.57;22.81;100355.44;5062911;28;20052;-80
2021/05/02 07:43:36;;;;;;;6.55;5.88;;;;;;;24.03;21.68;100359.66;5059996;28;20067;-80
2021/05/02 07:46:03;;;;;;;7.30;6.43;;;;;;;24.21;21.25;100367.72;5061462;28;20044;-80
2021/05/02 07:48:31;;;;;;;6.75;5.78;;;;;;;24.34;21.17;100359.19;5060322;28;20079;-80
2021/05/02 07:50:58;;;;;;;10.02;6.68;;;;;;;24.14;20.71;100374.78;5059872;28;20052;-80
2021/05/02 07:53:24;;;;;;;7.68;6.60;;;;;;;24.28;20.99;100365.25;5065090;28;20041;-80
2021/05/02 07:55:50;;;;;;;7.45;6.65;;;;;;;24.58;19.99;100367.41;5064934;28;20127;-80
2021/05/02 07:58:17;;;;;;;7.47;6.70;;;;;;;23.71;21.00;100365.69;5069271;28;20041;-80
2021/05/02 08:00:44;;;;;;;9.30;8.30;;;;;;;22.62;22.64;100366.72;5072752;28;20045;-81
2021/05/02 08:03:10;;;;;;;10.90;8.30;;;;;;;21.06;23.95;100368.09;5074870;28;20042;-80
2021/05/02 08:05:36;;;;;;;10.73;9.32;;;;;;;19.39;27.07;100378.22;5078789;28;20614;-80
2021/05/02 08:08:03;;;;;;;10.98;9.60;;;;;;;18.77;28.08;100384.28;5058752;28;20060;-78
2021/05/02 08:10:29;;;;;;;10.77;9.50;;;;;;;18.25;28.36;100380.38;5064656;28;20106;-81
2021/05/02 08:12:56;;;;;;;12.88;9.30;;;;;;;18.83;28.73;100383.78;5042528;28;20053;-79
2021/05/02 08:15:23;;;;;;;10.85;8.82;;;;;;;19.06;29.27;100385.41;5065411;28;20078;-80
2021/05/02 08:17:49;;;;;;;10.13;8.32;;;;;;;19.19;28.08;100380.78;5061736;28;20064;-79
2021/05/02 08:20:16;;;;;;;9.27;7.85;;;;;;;19.71;27.45;100386.28;5059992;28;20531;-82
2021/05/02 08:22:42;;;;;;;9.50;7.43;;;;;;;20.12;26.80;100396.19;5052112;28;20108;-81
2021/05/02 08:25:10;;;;;;;13.48;7.97;;;;;;;20.25;25.47;100397.69;5057843;28;20155;-80
2021/05/02 08:27:36;;;;;;;9.57;7.60;;;;;;;20.17;25.65;100394.78;5036566;28;20463;-80
2021/05/02 08:30:06;;;;;;;11.05;8.32;;;;;;;20.33;26.18;100397.00;5055953;28;20106;-82
2021/05/02 08:32:32;;;;;;;11.27;8.93;;;;;;;20.32;26.17;100401.50;5056543;28;20102;-79
2021/05/02 08:34:58;;;;;;;13.68;9.43;;;;;;;19.42;27.45;100402.16;5055569;28;20095;-82
2021/05/02 08:37:24;;;;;;;11.45;8.80;;;;;;;18.32;29.32;100407.53;5053588;28;20041;-80
2021/05/02 08:39:50;;;;;;;11.75;9.18;;;;;;;17.41;30.14;100396.72;5050013;28;20048;-79
2021/05/02 08:42:17;;;;;;;11.13;9.30;;;;;;;16.98;30.88;100413.28;5056367;28;20041;-79
2021/05/02 08:44:46;;;;;;;13.25;9.35;;;;;;;16.42;31.39;100410.16;5057755;28;20071;-79
2021/05/02 08:47:13;;;;;;;11.77;8.63;;;;;;;16.05;32.28;100419.06;5060419;28;20068;-79
2021/05/02 08:49:42;;;;;;;12.13;9.50;;;;;;;15.99;33.18;100416.78;5061876;28;20053;-79
2021/05/02 08:52:09;;;;;;;11.45;8.35;;;;;;;15.96;32.67;100409.00;5058913;28;20052;-81
2021/05/02 08:54:36;;;;;;;10.98;8.07;;;;;;;15.94;31.77;100410.91;5061085;28;22042;-81
2021/05/02 08:57:03;;;;;;;9.10;7.88;;;;;;;15.87;31.94;100420.31;5057799;28;20048;-79
2021/05/02 08:59:30;;;;;;;11.93;9.10;;;;;;;15.73;33.18;100424.78;5062455;28;20135;-81
2021/05/02 09:01:58;;;;;;;11.02;8.48;;;;;;;15.68;33.11;100416.22;5060582;28;20045;-80
2021/05/02 09:04:25;;;;;;;9.98;8.15;;;;;;;15.69;33.47;100415.28;5067885;28;20049;-79
2021/05/02 09:06:51;;;;;;;11.30;8.45;;;;;;;15.26;34.00;100429.75;5072215;28;20056;-80
2021/05/02 09:09:20;;;;;;;12.75;8.57;;;;;;;15.11;34.51;100428.06;5058005;28;20178;-79
2021/05/02 09:11:52;;;;;;;9.27;7.90;;;;;;;14.95;33.30;100423.72;5055768;28;20079;-81
2021/05/02 09:14:20;;;;;;;9.18;8.00;;;;;;;14.63;34.33;100419.59;5060594;28;20140;-79
2021/05/02 09:16:51;;;;;;;10.57;8.60;;;;;;;14.50;34.65;100423.97;5065634;28;20076;-79
2021/05/02 09:19:19;;;;;;;12.55;8.90;;;;;;;14.29;36.21;100423.47;5060972;28;20052;-79
2021/05/02 09:21:46;;;;;;;13.70;9.27;;;;;;;14.20;36.25;100416.91;5057365;28;20045;-79
2021/05/02 09:24:26;;;;;;;9.82;8.77;;;;;;;14.17;36.51;100422.41;5058172;28;20057;-79
2021/05/02 09:27:04;;;;;;;11.23;8.98;;;;;;;14.06;36.79;100432.88;5054565;28;20148;-79
2021/05/02 09:29:31;;;;;;;10.35;8.15;;;;;;;14.01;36.59;100432.28;5050986;28;20519;-81
2021/05/02 09:31:58;;;;;;;9.85;7.40;;;;;;;14.12;36.41;100435.16;5050978;28;20113;-79
2021/05/02 09:34:25;;;;;;;10.77;6.97;;;;;;;14.28;36.15;100429.75;5050672;28;20568;-79
2021/05/02 09:36:56;;;;;;;9.90;7.15;;;;;;;14.38;35.87;100445.06;5052754;28;20151;-79
2021/05/02 09:39:49;;;;;;;10.50;7.35;;;;;;;14.29;35.01;100443.00;5052226;28;20595;-79
2021/05/02 09:42:23;;;;;;;12.63;7.10;;;;;;;14.26;35.74;100445.84;5047464;28;20067;-79
2021/05/02 09:45:00;;;;;;;11.35;7.35;;;;;;;14.31;35.27;100438.44;5050783;28;20599;-80
2021/05/02 09:47:38;;;;;;;7.95;6.93;;;;;;;14.66;36.24;100446.03;5066893;28;20065;-79
2021/05/02 09:50:18;;;;;;;9.88;6.57;;;;;;;14.92;34.25;100447.06;5053839;28;20128;-80
2021/05/02 09:52:46;;;;;;;6.55;5.90;;;;;;;14.84;34.60;100455.53;5058334;28;20034;-81
2021/05/02 09:55:22;;;;;;;7.22;5.97;;;;;;;14.63;34.55;100460.44;5053191;28;20114;-79
2021/05/02 09:57:53;;;;;;;7.45;5.25;;;;;;;14.48;35.02;100458.69;5048784;28;20049;-78
2021/05/02 10:00:32;;;;;;;7.35;5.22;;;;;;;14.31;34.95;100459.75;5049317;28;20053;-79
2021/05/02 10:03:01;;;;;;;6.30;5.18;;;;;;;14.30;35.56;100468.69;5052826;28;20055;-78
2021/05/02 10:05:29;;;;;;;7.47;5.38;;;;;;;14.31;35.62;100467.72;5053716;28;20049;-80
2021/05/02 10:07:55;;;;;;;7.07;5.22;;;;;;;14.24;35.74;100471.69;5039790;28;20067;-79
2021/05/02 10:10:22;;;;;;;8.18;5.15;;;;;;;14.25;36.02;100470.75;5052366;28;20087;-79
2021/05/02 10:12:51;;;;;;;7.80;5.88;;;;;;;14.18;35.71;100472.06;5055654;28;20049;-79
2021/05/02 10:15:19;;;;;;;7.55;5.40;;;;;;;13.99;36.67;100476.81;5058404;28;20044;-79
2021/05/02 10:17:49;;;;;;;6.22;5.40;;;;;;;14.08;36.48;100475.38;5054560;28;20068;-79
2021/05/02 10:20:15;;;;;;;6.07;5.15;;;;;;;14.06;36.67;100472.81;5051068;28;20975;-79
2021/05/02 10:22:41;;;;;;;7.03;5.63;;;;;;;14.05;37.21;100471.09;5052487;28;20490;-79
2021/05/02 10:25:11;;;;;;;6.70;4.88;;;;;;;14.03;37.47;100486.31;5053691;28;20590;-79
2021/05/02 10:27:51;;;;;;;6.00;5.30;;;;;;;14.04;36.77;100483.53;5050811;28;20072;-79
2021/05/02 10:30:27;;;;;;;7.33;5.73;;;;;;;13.93;37.55;100494.00;5059314;28;20079;-79
2021/05/02 10:33:05;;;;;;;6.20;5.50;;;;;;;13.79;38.45;100496.59;5067395;28;20049;-78
2021/05/02 10:35:49;;;;;;;11.18;5.50;;;;;;;13.65;38.55;100497.41;5062410;28;20073;-80
2021/05/02 10:38:51;;;;;;;7.50;5.07;;;;;;;13.65;38.90;100492.09;5062517;28;20045;-80
2021/05/02 10:41:28;;;;;;;6.82;5.22;;;;;;;13.86;38.54;100492.63;5064270;28;20059;-80
2021/05/02 10:44:07;;;;;;;7.60;5.30;;;;;;;13.95;38.35;100485.91;5060161;28;20080;-79
2021/05/02 10:46:57;;;;;;;7.55;4.82;;;;;;;14.07;38.10;100493.16;5059504;28;20095;-81
2021/05/02 10:49:23;;;;;;;6.72;4.30;;;;;;;14.24;37.76;100506.31;5053363;28;20041;-81
2021/05/02 10:51:54;;;;;;;5.80;4.93;;;;;;;14.29;36.97;100498.94;5060944;28;20144;-82
2021/05/02 10:54:39;;;;;;;5.85;4.63;;;;;;;14.25;36.83;100499.19;5064835;28;20033;-82
2021/05/02 10:57:08;;;;;;;7.03;4.53;;;;;;;14.46;36.89;100495.28;5056895;28;20041;-81
2021/05/02 10:59:58;;;;;;;4.55;3.90;;;;;;;14.73;36.57;100503.34;5053817;28;20041;-81
2021/05/02 11:02:33;;;;;;;5.35;4.78;;;;;;;14.52;36.25;100502.00;5052307;28;20411;-80
2021/05/02 11:04:59;;;;;;;6.75;4.80;;;;;;;14.28;37.25;100507.00;5060950;28;20053;-80
2021/05/02 11:07:34;;;;;;;5.65;4.35;;;;;;;14.00;37.59;100489.16;5058052;28;20132;-80
2021/05/02 11:10:00;;;;;;;4.85;4.35;;;;;;;13.93;37.70;100515.28;5064693;28;20036;-79
2021/05/02 11:12:28;;;;;;;7.57;4.00;;;;;;;13.69;37.15;100506.91;5064630;28;20040;-79
2021/05/02 11:14:54;;;;;;;4.85;3.72;;;;;;;13.55;36.71;100506.84;5062506;28;20053;-80
2021/05/02 11:17:22;;;;;;;6.55;3.88;;;;;;;13.51;36.84;100513.31;5060272;28;20052;-81
2021/05/02 11:19:51;;;;;;;4.93;3.70;;;;;;;13.63;37.05;100501.97;5067340;28;20067;-79
2021/05/02 11:22:17;;;;;;;5.38;3.83;;;;;;;13.80;36.77;100524.09;5072419;28;20079;-80
2021/05/02 11:24:44;;;;;;;6.13;3.53;;;;;;;13.80;36.75;100524.09;5071538;28;20057;-81
2021/05/02 11:27:20;;;;;;;4.13;3.67;;;;;;;13.64;37.04;100534.75;5059573;28;20037;-80
2021/05/02 11:29:59;;;;;;;5.22;3.80;;;;;;;13.34;37.57;100538.22;5056379;28;20101;-81